Centropolis, Kansas
Current Conditions -  °F | °C
As of 7:53 AM on Wednesday 22 Oct 2014 (Local Time) from KIXD Reporting Station
Broken Clouds Broken Clouds  
Wind Chill: 53°   Ceiling: 6000
Heat Index: 53°   Visibility: 10mi
Dew Point: 46°   Wind: 12mph
Humidity: 77%   Direction: 120°ESE
Pressure: 30.18"   Gusts: NA
Location:  38.6288°N, 95.2897°W
Report Text: KIXD 221253Z 12010KT 10SM BKN060 12/08 A3018 RMK AO2 SLP216 T01170078
Loading
Personal Weather Stations






























Interactive Weather Map
Tropical Storm Tracking
New forecast layout! Learn more

10-Day Weather Forecast

Advertisements
Track Severe Weather on mobile